sensor_id;sensor_type;location;lat;lon;timestamp;P1;durP1;ratioP1;P2;durP2;ratioP2
13185;SDS011;6658;53.080;7.428;2023-02-18T00:00:58;6.93;;;2.00;;
13185;SDS011;6658;53.080;7.428;2023-02-18T00:03:26;9.17;;;2.67;;
13185;SDS011;6658;53.080;7.428;2023-02-18T00:05:53;7.43;;;2.50;;
13185;SDS011;6658;53.080;7.428;2023-02-18T00:08:19;6.67;;;2.40;;
13185;SDS011;6658;53.080;7.428;2023-02-18T00:10:46;7.27;;;2.30;;
13185;SDS011;6658;53.080;7.428;2023-02-18T00:13:12;8.77;;;2.20;;
13185;SDS011;6658;53.080;7.428;2023-02-18T00:15:38;6.93;;;1.90;;
13185;SDS011;6658;53.080;7.428;2023-02-18T00:18:04;6.33;;;2.40;;
13185;SDS011;6658;53.080;7.428;2023-02-18T00:20:32;4.43;;;1.90;;
13185;SDS011;6658;53.080;7.428;2023-02-18T00:23:00;5.97;;;2.00;;
13185;SDS011;6658;53.080;7.428;2023-02-18T00:25:26;8.30;;;2.63;;
13185;SDS011;6658;53.080;7.428;2023-02-18T00:27:52;9.37;;;2.67;;
13185;SDS011;6658;53.080;7.428;2023-02-18T00:30:18;3.80;;;1.87;;
13185;SDS011;6658;53.080;7.428;2023-02-18T00:32:47;5.50;;;2.00;;
13185;SDS011;6658;53.080;7.428;2023-02-18T00:35:13;4.33;;;1.77;;
13185;SDS011;6658;53.080;7.428;2023-02-18T00:37:38;6.17;;;2.03;;
13185;SDS011;6658;53.080;7.428;2023-02-18T00:40:04;5.17;;;1.80;;
13185;SDS011;6658;53.080;7.428;2023-02-18T00:42:31;8.37;;;2.30;;
13185;SDS011;6658;53.080;7.428;2023-02-18T00:44:56;7.67;;;2.20;;
13185;SDS011;6658;53.080;7.428;2023-02-18T00:47:22;2.97;;;1.43;;
13185;SDS011;6658;53.080;7.428;2023-02-18T00:49:48;7.00;;;2.00;;
13185;SDS011;6658;53.080;7.428;2023-02-18T00:52:13;6.27;;;1.93;;
13185;SDS011;6658;53.080;7.428;2023-02-18T00:54:39;5.43;;;2.23;;
13185;SDS011;6658;53.080;7.428;2023-02-18T00:57:05;5.47;;;2.30;;
13185;SDS011;6658;53.080;7.428;2023-02-18T00:59:30;8.43;;;2.50;;
13185;SDS011;6658;53.080;7.428;2023-02-18T01:01:56;5.87;;;2.07;;
13185;SDS011;6658;53.080;7.428;2023-02-18T01:04:22;8.87;;;2.17;;
13185;SDS011;6658;53.080;7.428;2023-02-18T01:06:47;6.20;;;1.90;;
13185;SDS011;6658;53.080;7.428;2023-02-18T01:09:13;7.90;;;2.50;;
13185;SDS011;6658;53.080;7.428;2023-02-18T01:11:39;8.97;;;2.17;;
13185;SDS011;6658;53.080;7.428;2023-02-18T01:14:04;8.30;;;2.10;;
13185;SDS011;6658;53.080;7.428;2023-02-18T01:16:30;6.10;;;1.80;;
13185;SDS011;6658;53.080;7.428;2023-02-18T01:18:56;8.03;;;2.27;;
13185;SDS011;6658;53.080;7.428;2023-02-18T01:21:21;8.73;;;2.27;;
13185;SDS011;6658;53.080;7.428;2023-02-18T01:23:47;6.30;;;2.00;;
13185;SDS011;6658;53.080;7.428;2023-02-18T01:26:13;5.17;;;1.80;;
13185;SDS011;6658;53.080;7.428;2023-02-18T01:28:39;6.27;;;2.43;;
13185;SDS011;6658;53.080;7.428;2023-02-18T01:31:07;7.93;;;2.07;;
13185;SDS011;6658;53.080;7.428;2023-02-18T01:33:34;6.87;;;2.20;;
13185;SDS011;6658;53.080;7.428;2023-02-18T01:36:00;7.57;;;2.27;;
13185;SDS011;6658;53.080;7.428;2023-02-18T01:38:26;7.03;;;2.03;;
13185;SDS011;6658;53.080;7.428;2023-02-18T01:40:52;7.17;;;1.80;;
13185;SDS011;6658;53.080;7.428;2023-02-18T01:43:18;6.60;;;1.50;;
13185;SDS011;6658;53.080;7.428;2023-02-18T01:45:48;6.00;;;2.33;;
13185;SDS011;6658;53.080;7.428;2023-02-18T01:48:19;4.00;;;1.90;;
13185;SDS011;6658;53.080;7.428;2023-02-18T01:50:48;5.77;;;1.90;;
13185;SDS011;6658;53.080;7.428;2023-02-18T01:53:19;4.47;;;1.80;;
13185;SDS011;6658;53.080;7.428;2023-02-18T01:55:49;7.97;;;2.13;;
13185;SDS011;6658;53.080;7.428;2023-02-18T01:58:15;5.50;;;1.70;;
13185;SDS011;6658;53.080;7.428;2023-02-18T02:00:41;6.73;;;2.43;;
13185;SDS011;6658;53.080;7.428;2023-02-18T02:03:07;7.63;;;2.47;;
13185;SDS011;6658;53.080;7.428;2023-02-18T02:05:33;4.07;;;2.07;;
13185;SDS011;6658;53.080;7.428;2023-02-18T02:07:59;4.43;;;1.80;;
13185;SDS011;6658;53.080;7.428;2023-02-18T02:11:28;6.43;;;2.20;;
13185;SDS011;6658;53.080;7.428;2023-02-18T02:16:30;6.23;;;2.83;;
13185;SDS011;6658;53.080;7.428;2023-02-18T02:22:09;6.93;;;2.00;;
13185;SDS011;6658;53.080;7.428;2023-02-18T02:27:22;4.83;;;2.00;;
13185;SDS011;6658;53.080;7.428;2023-02-18T02:30:00;5.40;;;1.77;;
13185;SDS011;6658;53.080;7.428;2023-02-18T02:38:22;6.80;;;2.00;;
13185;SDS011;6658;53.080;7.428;2023-02-18T02:41:35;5.60;;;1.77;;
13185;SDS011;6658;53.080;7.428;2023-02-18T02:46:46;5.77;;;2.07;;
13185;SDS011;6658;53.080;7.428;2023-02-18T02:54:33;6.70;;;1.70;;
13185;SDS011;6658;53.080;7.428;2023-02-18T02:57:45;6.90;;;2.70;;
13185;SDS011;6658;53.080;7.428;2023-02-18T02:59:57;3.80;;;2.20;;
13185;SDS011;6658;53.080;7.428;2023-02-18T03:08:02;7.83;;;1.83;;
13185;SDS011;6658;53.080;7.428;2023-02-18T03:10:51;6.37;;;2.00;;
13185;SDS011;6658;53.080;7.428;2023-02-18T03:22:00;5.13;;;2.00;;
13185;SDS011;6658;53.080;7.428;2023-02-18T03:24:40;11.63;;;3.03;;
13185;SDS011;6658;53.080;7.428;2023-02-18T03:27:15;10.77;;;2.50;;
13185;SDS011;6658;53.080;7.428;2023-02-18T03:29:42;6.43;;;2.53;;
13185;SDS011;6658;53.080;7.428;2023-02-18T03:32:12;6.73;;;2.13;;
13185;SDS011;6658;53.080;7.428;2023-02-18T03:34:43;5.57;;;2.30;;
13185;SDS011;6658;53.080;7.428;2023-02-18T03:37:12;9.17;;;2.77;;
13185;SDS011;6658;53.080;7.428;2023-02-18T03:39:40;8.03;;;2.90;;
13185;SDS011;6658;53.080;7.428;2023-02-18T03:42:09;6.97;;;3.00;;
13185;SDS011;6658;53.080;7.428;2023-02-18T03:44:36;7.80;;;3.23;;
13185;SDS011;6658;53.080;7.428;2023-02-18T03:47:01;8.50;;;3.53;;
13185;SDS011;6658;53.080;7.428;2023-02-18T03:49:27;9.60;;;3.10;;
13185;SDS011;6658;53.080;7.428;2023-02-18T03:51:53;6.33;;;3.00;;
13185;SDS011;6658;53.080;7.428;2023-02-18T03:54:18;9.63;;;3.67;;
13185;SDS011;6658;53.080;7.428;2023-02-18T03:56:44;9.03;;;3.57;;
13185;SDS011;6658;53.080;7.428;2023-02-18T03:59:11;6.53;;;3.17;;
13185;SDS011;6658;53.080;7.428;2023-02-18T04:01:37;9.27;;;3.50;;
13185;SDS011;6658;53.080;7.428;2023-02-18T04:04:03;8.57;;;3.90;;
13185;SDS011;6658;53.080;7.428;2023-02-18T04:06:29;8.30;;;3.77;;
13185;SDS011;6658;53.080;7.428;2023-02-18T04:08:55;8.27;;;3.73;;
13185;SDS011;6658;53.080;7.428;2023-02-18T04:11:21;9.70;;;4.27;;
13185;SDS011;6658;53.080;7.428;2023-02-18T04:13:47;8.10;;;4.20;;
13185;SDS011;6658;53.080;7.428;2023-02-18T04:16:13;8.93;;;4.33;;
13185;SDS011;6658;53.080;7.428;2023-02-18T04:18:39;8.53;;;4.17;;
13185;SDS011;6658;53.080;7.428;2023-02-18T04:21:05;7.97;;;4.50;;
13185;SDS011;6658;53.080;7.428;2023-02-18T04:23:30;7.00;;;4.23;;
13185;SDS011;6658;53.080;7.428;2023-02-18T04:25:56;7.03;;;4.37;;
13185;SDS011;6658;53.080;7.428;2023-02-18T04:28:22;11.67;;;5.13;;
13185;SDS011;6658;53.080;7.428;2023-02-18T04:30:48;8.07;;;5.27;;
13185;SDS011;6658;53.080;7.428;2023-02-18T04:33:13;6.43;;;4.23;;
13185;SDS011;6658;53.080;7.428;2023-02-18T04:35:40;9.17;;;4.40;;
13185;SDS011;6658;53.080;7.428;2023-02-18T04:38:06;12.57;;;5.67;;
13185;SDS011;6658;53.080;7.428;2023-02-18T04:40:32;10.23;;;5.73;;
13185;SDS011;6658;53.080;7.428;2023-02-18T04:42:59;8.67;;;4.83;;
13185;SDS011;6658;53.080;7.428;2023-02-18T04:45:25;12.43;;;5.57;;
13185;SDS011;6658;53.080;7.428;2023-02-18T04:48:02;12.60;;;6.33;;
13185;SDS011;6658;53.080;7.428;2023-02-18T04:54:42;10.10;;;5.83;;
13185;SDS011;6658;53.080;7.428;2023-02-18T04:57:31;11.90;;;6.27;;
13185;SDS011;6658;53.080;7.428;2023-02-18T05:00:45;9.00;;;6.20;;
13185;SDS011;6658;53.080;7.428;2023-02-18T05:09:29;12.03;;;7.17;;
13185;SDS011;6658;53.080;7.428;2023-02-18T05:12:26;15.37;;;7.60;;
13185;SDS011;6658;53.080;7.428;2023-02-18T05:15:07;14.27;;;8.07;;
13185;SDS011;6658;53.080;7.428;2023-02-18T05:28:46;15.37;;;10.17;;
13185;SDS011;6658;53.080;7.428;2023-02-18T05:31:17;13.40;;;10.53;;
13185;SDS011;6658;53.080;7.428;2023-02-18T05:33:43;10.23;;;9.00;;
13185;SDS011;6658;53.080;7.428;2023-02-18T05:36:09;13.30;;;9.67;;
13185;SDS011;6658;53.080;7.428;2023-02-18T05:38:34;13.60;;;10.63;;
13185;SDS011;6658;53.080;7.428;2023-02-18T05:41:06;13.73;;;12.27;;
13185;SDS011;6658;53.080;7.428;2023-02-18T05:43:31;17.53;;;13.63;;
13185;SDS011;6658;53.080;7.428;2023-02-18T05:46:17;18.90;;;14.10;;
13185;SDS011;6658;53.080;7.428;2023-02-18T05:48:46;16.13;;;14.33;;
13185;SDS011;6658;53.080;7.428;2023-02-18T05:51:12;17.47;;;13.83;;
13185;SDS011;6658;53.080;7.428;2023-02-18T05:53:38;19.63;;;15.00;;
13185;SDS011;6658;53.080;7.428;2023-02-18T05:56:04;20.57;;;15.70;;
13185;SDS011;6658;53.080;7.428;2023-02-18T05:58:30;19.47;;;15.53;;
13185;SDS011;6658;53.080;7.428;2023-02-18T06:01:07;22.37;;;15.43;;
13185;SDS011;6658;53.080;7.428;2023-02-18T06:03:43;19.73;;;15.37;;
13185;SDS011;6658;53.080;7.428;2023-02-18T06:06:09;25.00;;;17.10;;
13185;SDS011;6658;53.080;7.428;2023-02-18T06:08:35;21.43;;;16.20;;
13185;SDS011;6658;53.080;7.428;2023-02-18T06:11:00;23.37;;;16.50;;
13185;SDS011;6658;53.080;7.428;2023-02-18T06:13:27;22.27;;;16.87;;
13185;SDS011;6658;53.080;7.428;2023-02-18T06:15:52;22.07;;;17.00;;
13185;SDS011;6658;53.080;7.428;2023-02-18T06:18:19;20.27;;;16.80;;
13185;SDS011;6658;53.080;7.428;2023-02-18T06:20:45;22.40;;;17.23;;
13185;SDS011;6658;53.080;7.428;2023-02-18T06:23:12;21.80;;;17.70;;
13185;SDS011;6658;53.080;7.428;2023-02-18T06:25:38;22.93;;;16.40;;
13185;SDS011;6658;53.080;7.428;2023-02-18T06:28:04;20.33;;;16.23;;
13185;SDS011;6658;53.080;7.428;2023-02-18T06:30:33;20.73;;;16.60;;
13185;SDS011;6658;53.080;7.428;2023-02-18T06:32:59;20.87;;;17.00;;
13185;SDS011;6658;53.080;7.428;2023-02-18T06:35:28;21.47;;;15.90;;
13185;SDS011;6658;53.080;7.428;2023-02-18T06:37:56;22.97;;;15.53;;
13185;SDS011;6658;53.080;7.428;2023-02-18T06:40:27;18.97;;;14.63;;
13185;SDS011;6658;53.080;7.428;2023-02-18T06:42:53;19.93;;;15.10;;
13185;SDS011;6658;53.080;7.428;2023-02-18T06:45:22;18.37;;;13.00;;
13185;SDS011;6658;53.080;7.428;2023-02-18T06:47:53;19.03;;;12.93;;
13185;SDS011;6658;53.080;7.428;2023-02-18T06:50:21;15.73;;;12.07;;
13185;SDS011;6658;53.080;7.428;2023-02-18T06:52:50;17.27;;;12.07;;
13185;SDS011;6658;53.080;7.428;2023-02-18T06:55:24;16.10;;;11.50;;
13185;SDS011;6658;53.080;7.428;2023-02-18T06:57:50;12.57;;;10.47;;
13185;SDS011;6658;53.080;7.428;2023-02-18T07:00:22;13.23;;;9.50;;
13185;SDS011;6658;53.080;7.428;2023-02-18T07:02:53;12.07;;;8.63;;
13185;SDS011;6658;53.080;7.428;2023-02-18T07:05:19;14.23;;;9.53;;
13185;SDS011;6658;53.080;7.428;2023-02-18T07:07:45;11.60;;;8.77;;
13185;SDS011;6658;53.080;7.428;2023-02-18T07:10:24;11.90;;;8.83;;
13185;SDS011;6658;53.080;7.428;2023-02-18T07:12:49;11.70;;;7.67;;
13185;SDS011;6658;53.080;7.428;2023-02-18T07:15:15;9.93;;;7.07;;
13185;SDS011;6658;53.080;7.428;2023-02-18T07:17:51;9.33;;;7.37;;
13185;SDS011;6658;53.080;7.428;2023-02-18T07:20:19;9.67;;;6.47;;
13185;SDS011;6658;53.080;7.428;2023-02-18T07:22:49;10.57;;;6.73;;
13185;SDS011;6658;53.080;7.428;2023-02-18T07:25:18;9.33;;;6.63;;
13185;SDS011;6658;53.080;7.428;2023-02-18T07:27:46;10.03;;;7.03;;
13185;SDS011;6658;53.080;7.428;2023-02-18T07:30:15;9.17;;;6.50;;
13185;SDS011;6658;53.080;7.428;2023-02-18T07:32:44;9.27;;;6.33;;
13185;SDS011;6658;53.080;7.428;2023-02-18T07:35:13;8.27;;;5.37;;
13185;SDS011;6658;53.080;7.428;2023-02-18T07:37:46;7.03;;;5.13;;
13185;SDS011;6658;53.080;7.428;2023-02-18T07:40:16;7.90;;;5.53;;
13185;SDS011;6658;53.080;7.428;2023-02-18T07:42:45;6.17;;;4.93;;
13185;SDS011;6658;53.080;7.428;2023-02-18T07:45:11;6.60;;;4.73;;
13185;SDS011;6658;53.080;7.428;2023-02-18T07:47:37;7.60;;;5.00;;
13185;SDS011;6658;53.080;7.428;2023-02-18T07:50:09;5.57;;;4.70;;
13185;SDS011;6658;53.080;7.428;2023-02-18T07:52:35;6.77;;;4.40;;
13185;SDS011;6658;53.080;7.428;2023-02-18T07:55:01;6.57;;;4.67;;
13185;SDS011;6658;53.080;7.428;2023-02-18T07:57:36;4.93;;;4.33;;
13185;SDS011;6658;53.080;7.428;2023-02-18T08:00:21;5.67;;;4.63;;
13185;SDS011;6658;53.080;7.428;2023-02-18T08:02:50;5.90;;;4.67;;
13185;SDS011;6658;53.080;7.428;2023-02-18T08:05:38;5.27;;;4.33;;
13185;SDS011;6658;53.080;7.428;2023-02-18T08:08:05;5.23;;;4.43;;
13185;SDS011;6658;53.080;7.428;2023-02-18T08:10:35;5.00;;;4.37;;
13185;SDS011;6658;53.080;7.428;2023-02-18T08:13:01;5.67;;;4.97;;
13185;SDS011;6658;53.080;7.428;2023-02-18T08:15:30;6.17;;;4.93;;
13185;SDS011;6658;53.080;7.428;2023-02-18T08:18:16;5.47;;;4.93;;
13185;SDS011;6658;53.080;7.428;2023-02-18T08:20:56;5.97;;;5.37;;
13185;SDS011;6658;53.080;7.428;2023-02-18T08:23:34;5.77;;;5.27;;
13185;SDS011;6658;53.080;7.428;2023-02-18T08:26:26;6.30;;;5.70;;
13185;SDS011;6658;53.080;7.428;2023-02-18T08:28:55;6.70;;;6.00;;
13185;SDS011;6658;53.080;7.428;2023-02-18T08:31:25;6.70;;;6.00;;
13185;SDS011;6658;53.080;7.428;2023-02-18T08:33:58;6.27;;;5.67;;
13185;SDS011;6658;53.080;7.428;2023-02-18T08:36:30;7.63;;;6.80;;
13185;SDS011;6658;53.080;7.428;2023-02-18T08:39:04;6.57;;;5.80;;
13185;SDS011;6658;53.080;7.428;2023-02-18T08:41:30;8.07;;;7.30;;
13185;SDS011;6658;53.080;7.428;2023-02-18T08:43:59;6.60;;;6.00;;
13185;SDS011;6658;53.080;7.428;2023-02-18T08:46:27;7.73;;;6.27;;
13185;SDS011;6658;53.080;7.428;2023-02-18T08:49:03;6.93;;;5.83;;
13185;SDS011;6658;53.080;7.428;2023-02-18T08:51:32;6.57;;;5.80;;
13185;SDS011;6658;53.080;7.428;2023-02-18T08:54:04;5.83;;;5.30;;
13185;SDS011;6658;53.080;7.428;2023-02-18T08:56:30;5.67;;;5.17;;
13185;SDS011;6658;53.080;7.428;2023-02-18T08:58:59;5.63;;;5.13;;
13185;SDS011;6658;53.080;7.428;2023-02-18T09:01:28;5.30;;;4.80;;
13185;SDS011;6658;53.080;7.428;2023-02-18T09:03:54;6.87;;;5.27;;
13185;SDS011;6658;53.080;7.428;2023-02-18T09:06:29;6.03;;;4.80;;
13185;SDS011;6658;53.080;7.428;2023-02-18T09:09:04;6.83;;;4.90;;
13185;SDS011;6658;53.080;7.428;2023-02-18T09:11:31;6.83;;;5.47;;
13185;SDS011;6658;53.080;7.428;2023-02-18T09:14:14;5.97;;;5.37;;
13185;SDS011;6658;53.080;7.428;2023-02-18T09:16:41;6.23;;;4.70;;
13185;SDS011;6658;53.080;7.428;2023-02-18T09:19:07;8.10;;;5.43;;
13185;SDS011;6658;53.080;7.428;2023-02-18T09:21:44;7.17;;;5.47;;
13185;SDS011;6658;53.080;7.428;2023-02-18T09:24:10;8.40;;;5.90;;
13185;SDS011;6658;53.080;7.428;2023-02-18T09:26:37;7.13;;;5.97;;
13185;SDS011;6658;53.080;7.428;2023-02-18T09:29:08;8.37;;;5.40;;
13185;SDS011;6658;53.080;7.428;2023-02-18T09:31:40;7.87;;;5.40;;
13185;SDS011;6658;53.080;7.428;2023-02-18T09:34:08;9.17;;;6.10;;
13185;SDS011;6658;53.080;7.428;2023-02-18T09:36:39;5.83;;;4.90;;
13185;SDS011;6658;53.080;7.428;2023-02-18T09:39:05;7.53;;;5.50;;
13185;SDS011;6658;53.080;7.428;2023-02-18T09:41:38;6.77;;;5.27;;
13185;SDS011;6658;53.080;7.428;2023-02-18T09:44:36;7.27;;;5.60;;
13185;SDS011;6658;53.080;7.428;2023-02-18T09:49:46;4.80;;;4.37;;
13185;SDS011;6658;53.080;7.428;2023-02-18T09:52:25;7.47;;;5.17;;
13185;SDS011;6658;53.080;7.428;2023-02-18T09:54:54;6.83;;;4.50;;
13185;SDS011;6658;53.080;7.428;2023-02-18T09:57:28;8.60;;;4.43;;
13185;SDS011;6658;53.080;7.428;2023-02-18T10:00:30;4.43;;;3.70;;
13185;SDS011;6658;53.080;7.428;2023-02-18T10:03:07;4.60;;;3.67;;
13185;SDS011;6658;53.080;7.428;2023-02-18T10:08:32;3.73;;;3.10;;
13185;SDS011;6658;53.080;7.428;2023-02-18T10:11:13;3.13;;;2.80;;
13185;SDS011;6658;53.080;7.428;2023-02-18T10:13:42;2.07;;;1.90;;
13185;SDS011;6658;53.080;7.428;2023-02-18T10:16:15;4.43;;;2.57;;
13185;SDS011;6658;53.080;7.428;2023-02-18T10:18:52;2.73;;;2.53;;
13185;SDS011;6658;53.080;7.428;2023-02-18T10:21:25;3.77;;;2.43;;
13185;SDS011;6658;53.080;7.428;2023-02-18T10:23:59;2.83;;;1.93;;
13185;SDS011;6658;53.080;7.428;2023-02-18T10:26:32;3.33;;;2.03;;
13185;SDS011;6658;53.080;7.428;2023-02-18T10:29:01;1.80;;;1.70;;
13185;SDS011;6658;53.080;7.428;2023-02-18T10:31:42;2.10;;;1.93;;
13185;SDS011;6658;53.080;7.428;2023-02-18T10:34:19;2.77;;;1.90;;
13185;SDS011;6658;53.080;7.428;2023-02-18T10:42:30;3.57;;;2.00;;
13185;SDS011;6658;53.080;7.428;2023-02-18T10:45:13;2.07;;;1.50;;
13185;SDS011;6658;53.080;7.428;2023-02-18T10:48:03;2.10;;;1.90;;
13185;SDS011;6658;53.080;7.428;2023-02-18T10:50:45;2.90;;;2.17;;
13185;SDS011;6658;53.080;7.428;2023-02-18T10:53:15;2.30;;;2.00;;
13185;SDS011;6658;53.080;7.428;2023-02-18T10:55:53;3.53;;;2.20;;
13185;SDS011;6658;53.080;7.428;2023-02-18T11:00:54;2.60;;;1.80;;
13185;SDS011;6658;53.080;7.428;2023-02-18T11:03:37;3.77;;;2.10;;
13185;SDS011;6658;53.080;7.428;2023-02-18T11:06:36;4.80;;;2.27;;
13185;SDS011;6658;53.080;7.428;2023-02-18T11:09:20;5.03;;;2.17;;
13185;SDS011;6658;53.080;7.428;2023-02-18T11:11:48;6.07;;;2.57;;
13185;SDS011;6658;53.080;7.428;2023-02-18T11:14:14;4.43;;;2.70;;
13185;SDS011;6658;53.080;7.428;2023-02-18T11:17:20;4.23;;;2.23;;
13185;SDS011;6658;53.080;7.428;2023-02-18T11:19:58;5.07;;;2.70;;
13185;SDS011;6658;53.080;7.428;2023-02-18T11:22:29;5.53;;;2.30;;
13185;SDS011;6658;53.080;7.428;2023-02-18T11:25:02;5.20;;;2.83;;
13185;SDS011;6658;53.080;7.428;2023-02-18T11:27:43;6.43;;;2.40;;
13185;SDS011;6658;53.080;7.428;2023-02-18T11:30:18;5.70;;;2.50;;
13185;SDS011;6658;53.080;7.428;2023-02-18T11:32:58;7.23;;;2.63;;
13185;SDS011;6658;53.080;7.428;2023-02-18T11:38:28;3.63;;;2.03;;
13185;SDS011;6658;53.080;7.428;2023-02-18T11:41:07;3.77;;;2.03;;
13185;SDS011;6658;53.080;7.428;2023-02-18T11:43:44;3.10;;;1.73;;
13185;SDS011;6658;53.080;7.428;2023-02-18T11:46:13;8.53;;;2.37;;
13185;SDS011;6658;53.080;7.428;2023-02-18T11:48:44;4.17;;;1.80;;
13185;SDS011;6658;53.080;7.428;2023-02-18T11:51:18;6.27;;;1.90;;
13185;SDS011;6658;53.080;7.428;2023-02-18T11:53:58;7.17;;;2.17;;
13185;SDS011;6658;53.080;7.428;2023-02-18T11:56:35;5.07;;;1.90;;
13185;SDS011;6658;53.080;7.428;2023-02-18T11:59:04;5.20;;;1.97;;
13185;SDS011;6658;53.080;7.428;2023-02-18T12:01:42;6.37;;;2.83;;
13185;SDS011;6658;53.080;7.428;2023-02-18T12:04:27;4.37;;;1.77;;
13185;SDS011;6658;53.080;7.428;2023-02-18T12:12:17;4.13;;;1.70;;
13185;SDS011;6658;53.080;7.428;2023-02-18T12:15:04;3.37;;;1.87;;
13185;SDS011;6658;53.080;7.428;2023-02-18T12:17:47;4.13;;;2.00;;
13185;SDS011;6658;53.080;7.428;2023-02-18T12:21:02;5.83;;;1.97;;
13185;SDS011;6658;53.080;7.428;2023-02-18T12:26:28;5.93;;;2.50;;
13185;SDS011;6658;53.080;7.428;2023-02-18T12:45:44;4.03;;;2.03;;
13185;SDS011;6658;53.080;7.428;2023-02-18T13:00:07;4.63;;;1.80;;
13185;SDS011;6658;53.080;7.428;2023-02-18T13:11:11;4.03;;;2.17;;
13185;SDS011;6658;53.080;7.428;2023-02-18T13:13:57;7.07;;;2.87;;
13185;SDS011;6658;53.080;7.428;2023-02-18T13:16:31;4.57;;;1.83;;
13185;SDS011;6658;53.080;7.428;2023-02-18T13:19:00;6.53;;;2.23;;
13185;SDS011;6658;53.080;7.428;2023-02-18T13:21:34;5.63;;;2.23;;
13185;SDS011;6658;53.080;7.428;2023-02-18T13:24:04;4.37;;;1.90;;
13185;SDS011;6658;53.080;7.428;2023-02-18T13:26:38;5.17;;;1.70;;
13185;SDS011;6658;53.080;7.428;2023-02-18T13:34:42;3.77;;;2.20;;
13185;SDS011;6658;53.080;7.428;2023-02-18T13:40:21;7.13;;;1.83;;
13185;SDS011;6658;53.080;7.428;2023-02-18T13:42:54;3.00;;;1.37;;
13185;SDS011;6658;53.080;7.428;2023-02-18T13:45:40;4.33;;;1.77;;
13185;SDS011;6658;53.080;7.428;2023-02-18T13:48:20;2.57;;;1.30;;
13185;SDS011;6658;53.080;7.428;2023-02-18T13:50:53;6.83;;;1.80;;
13185;SDS011;6658;53.080;7.428;2023-02-18T13:53:24;4.30;;;1.60;;
13185;SDS011;6658;53.080;7.428;2023-02-18T13:55:54;4.20;;;1.77;;
13185;SDS011;6658;53.080;7.428;2023-02-18T14:01:18;4.40;;;2.20;;
13185;SDS011;6658;53.080;7.428;2023-02-18T14:12:14;4.00;;;1.57;;
13185;SDS011;6658;53.080;7.428;2023-02-18T14:15:00;5.50;;;2.00;;
13185;SDS011;6658;53.080;7.428;2023-02-18T14:17:30;4.77;;;1.50;;
13185;SDS011;6658;53.080;7.428;2023-02-18T14:22:43;2.73;;;1.23;;
13185;SDS011;6658;53.080;7.428;2023-02-18T14:27:36;5.00;;;2.13;;
13185;SDS011;6658;53.080;7.428;2023-02-18T14:30:04;5.10;;;1.67;;
13185;SDS011;6658;53.080;7.428;2023-02-18T14:32:55;2.90;;;1.23;;
13185;SDS011;6658;53.080;7.428;2023-02-18T14:35:31;6.20;;;1.70;;
13185;SDS011;6658;53.080;7.428;2023-02-18T14:49:35;4.73;;;1.70;;
13185;SDS011;6658;53.080;7.428;2023-02-18T14:52:03;5.33;;;1.90;;
13185;SDS011;6658;53.080;7.428;2023-02-18T14:54:34;3.47;;;1.67;;
13185;SDS011;6658;53.080;7.428;2023-02-18T14:57:05;3.07;;;1.40;;
13185;SDS011;6658;53.080;7.428;2023-02-18T14:59:39;3.00;;;1.63;;
13185;SDS011;6658;53.080;7.428;2023-02-18T15:02:39;2.93;;;1.67;;
13185;SDS011;6658;53.080;7.428;2023-02-18T15:05:19;2.87;;;1.37;;
13185;SDS011;6658;53.080;7.428;2023-02-18T15:07:58;5.33;;;1.80;;
13185;SDS011;6658;53.080;7.428;2023-02-18T15:10:47;2.97;;;1.77;;
13185;SDS011;6658;53.080;7.428;2023-02-18T15:13:21;3.37;;;1.87;;
13185;SDS011;6658;53.080;7.428;2023-02-18T15:15:52;3.13;;;1.53;;
13185;SDS011;6658;53.080;7.428;2023-02-18T15:18:32;6.27;;;2.20;;
13185;SDS011;6658;53.080;7.428;2023-02-18T15:21:03;4.93;;;2.10;;
13185;SDS011;6658;53.080;7.428;2023-02-18T15:23:33;5.73;;;2.00;;
13185;SDS011;6658;53.080;7.428;2023-02-18T15:26:02;6.37;;;2.17;;
13185;SDS011;6658;53.080;7.428;2023-02-18T15:28:30;4.73;;;2.07;;
13185;SDS011;6658;53.080;7.428;2023-02-18T15:31:02;5.50;;;1.70;;
13185;SDS011;6658;53.080;7.428;2023-02-18T15:33:31;5.80;;;1.70;;
13185;SDS011;6658;53.080;7.428;2023-02-18T15:36:04;5.43;;;1.73;;
13185;SDS011;6658;53.080;7.428;2023-02-18T15:38:35;5.47;;;1.77;;
13185;SDS011;6658;53.080;7.428;2023-02-18T15:41:15;3.27;;;1.60;;
13185;SDS011;6658;53.080;7.428;2023-02-18T15:43:53;4.00;;;1.90;;
13185;SDS011;6658;53.080;7.428;2023-02-18T15:46:28;4.47;;;2.03;;
13185;SDS011;6658;53.080;7.428;2023-02-18T15:48:58;5.27;;;2.03;;
13185;SDS011;6658;53.080;7.428;2023-02-18T15:51:28;5.17;;;2.10;;
13185;SDS011;6658;53.080;7.428;2023-02-18T15:53:56;7.20;;;2.47;;
13185;SDS011;6658;53.080;7.428;2023-02-18T15:56:33;4.63;;;1.53;;
13185;SDS011;6658;53.080;7.428;2023-02-18T15:59:08;6.50;;;2.37;;
13185;SDS011;6658;53.080;7.428;2023-02-18T16:01:41;5.30;;;2.03;;
13185;SDS011;6658;53.080;7.428;2023-02-18T16:04:07;6.00;;;2.20;;
13185;SDS011;6658;53.080;7.428;2023-02-18T16:06:37;4.67;;;1.90;;
13185;SDS011;6658;53.080;7.428;2023-02-18T16:09:19;8.33;;;2.70;;
13185;SDS011;6658;53.080;7.428;2023-02-18T16:11:51;8.00;;;2.43;;
13185;SDS011;6658;53.080;7.428;2023-02-18T16:17:04;6.67;;;2.67;;
13185;SDS011;6658;53.080;7.428;2023-02-18T16:19:45;6.00;;;2.40;;
13185;SDS011;6658;53.080;7.428;2023-02-18T16:25:13;7.10;;;2.00;;
13185;SDS011;6658;53.080;7.428;2023-02-18T16:27:49;9.87;;;2.77;;
13185;SDS011;6658;53.080;7.428;2023-02-18T16:30:25;6.10;;;2.77;;
13185;SDS011;6658;53.080;7.428;2023-02-18T16:32:53;6.20;;;2.83;;
13185;SDS011;6658;53.080;7.428;2023-02-18T16:35:20;5.10;;;2.00;;
13185;SDS011;6658;53.080;7.428;2023-02-18T16:37:49;8.10;;;2.40;;
13185;SDS011;6658;53.080;7.428;2023-02-18T16:40:26;5.73;;;2.43;;
13185;SDS011;6658;53.080;7.428;2023-02-18T16:42:57;6.10;;;2.77;;
13185;SDS011;6658;53.080;7.428;2023-02-18T16:45:34;7.50;;;3.43;;
13185;SDS011;6658;53.080;7.428;2023-02-18T16:48:08;6.13;;;2.33;;
13185;SDS011;6658;53.080;7.428;2023-02-18T16:50:58;8.17;;;2.57;;
13185;SDS011;6658;53.080;7.428;2023-02-18T16:53:26;9.63;;;2.43;;
13185;SDS011;6658;53.080;7.428;2023-02-18T16:55:52;6.47;;;2.20;;
13185;SDS011;6658;53.080;7.428;2023-02-18T16:58:18;9.37;;;2.40;;
13185;SDS011;6658;53.080;7.428;2023-02-18T17:00:44;5.70;;;2.53;;
13185;SDS011;6658;53.080;7.428;2023-02-18T17:03:11;7.73;;;2.30;;
13185;SDS011;6658;53.080;7.428;2023-02-18T17:05:37;5.27;;;2.43;;
13185;SDS011;6658;53.080;7.428;2023-02-18T17:08:22;6.83;;;2.20;;
13185;SDS011;6658;53.080;7.428;2023-02-18T17:10:50;4.67;;;1.77;;
13185;SDS011;6658;53.080;7.428;2023-02-18T17:13:28;7.63;;;2.43;;
13185;SDS011;6658;53.080;7.428;2023-02-18T17:15:56;6.80;;;2.57;;
13185;SDS011;6658;53.080;7.428;2023-02-18T17:18:23;6.00;;;2.10;;
13185;SDS011;6658;53.080;7.428;2023-02-18T17:20:50;6.63;;;2.27;;
13185;SDS011;6658;53.080;7.428;2023-02-18T17:23:19;8.40;;;2.80;;
13185;SDS011;6658;53.080;7.428;2023-02-18T17:25:47;7.13;;;2.80;;
13185;SDS011;6658;53.080;7.428;2023-02-18T17:28:14;9.13;;;2.50;;
13185;SDS011;6658;53.080;7.428;2023-02-18T17:30:43;7.80;;;2.90;;
13185;SDS011;6658;53.080;7.428;2023-02-18T17:33:23;3.23;;;2.00;;
13185;SDS011;6658;53.080;7.428;2023-02-18T17:35:55;5.90;;;2.10;;
13185;SDS011;6658;53.080;7.428;2023-02-18T17:38:21;4.30;;;1.80;;
13185;SDS011;6658;53.080;7.428;2023-02-18T17:40:47;10.17;;;2.73;;
13185;SDS011;6658;53.080;7.428;2023-02-18T17:43:15;8.67;;;2.60;;
13185;SDS011;6658;53.080;7.428;2023-02-18T17:45:47;8.33;;;2.40;;
13185;SDS011;6658;53.080;7.428;2023-02-18T17:48:15;9.03;;;2.40;;
13185;SDS011;6658;53.080;7.428;2023-02-18T17:50:41;6.70;;;2.10;;
13185;SDS011;6658;53.080;7.428;2023-02-18T17:53:08;10.80;;;2.90;;
13185;SDS011;6658;53.080;7.428;2023-02-18T17:55:40;9.87;;;2.70;;
13185;SDS011;6658;53.080;7.428;2023-02-18T17:58:07;6.27;;;2.70;;
13185;SDS011;6658;53.080;7.428;2023-02-18T18:00:45;11.47;;;2.23;;
13185;SDS011;6658;53.080;7.428;2023-02-18T18:03:18;7.73;;;2.67;;
13185;SDS011;6658;53.080;7.428;2023-02-18T18:05:45;5.23;;;2.00;;
13185;SDS011;6658;53.080;7.428;2023-02-18T18:08:18;7.83;;;3.00;;